sensor_id;sensor_type;location;lat;lon;timestamp;temperature;humidity
36416;DHT22;22447;44.530;18.620;2022-07-23T00:01:39;20.30;99.90
36416;DHT22;22447;44.530;18.620;2022-07-23T00:04:06;20.30;99.90
36416;DHT22;22447;44.530;18.620;2022-07-23T00:06:32;20.30;99.90
36416;DHT22;22447;44.530;18.620;2022-07-23T00:08:58;20.30;99.90
36416;DHT22;22447;44.530;18.620;2022-07-23T00:11:24;20.30;99.90
36416;DHT22;22447;44.530;18.620;2022-07-23T00:13:50;20.30;99.90
36416;DHT22;22447;44.530;18.620;2022-07-23T00:16:16;20.30;99.90
36416;DHT22;22447;44.530;18.620;2022-07-23T00:18:42;20.20;99.90
36416;DHT22;22447;44.530;18.620;2022-07-23T00:21:08;20.20;99.90
36416;DHT22;22447;44.530;18.620;2022-07-23T00:23:34;20.20;99.90
36416;DHT22;22447;44.530;18.620;2022-07-23T00:25:59;20.20;99.90
36416;DHT22;22447;44.530;18.620;2022-07-23T00:28:25;20.10;99.90
36416;DHT22;22447;44.530;18.620;2022-07-23T00:30:51;20.10;99.90
36416;DHT22;22447;44.530;18.620;2022-07-23T00:33:18;20.10;99.90
36416;DHT22;22447;44.530;18.620;2022-07-23T00:35:44;20.10;99.90
36416;DHT22;22447;44.530;18.620;2022-07-23T00:38:11;20.00;99.90
36416;DHT22;22447;44.530;18.620;2022-07-23T00:40:37;19.90;99.90
36416;DHT22;22447;44.530;18.620;2022-07-23T00:43:04;19.90;99.90
36416;DHT22;22447;44.530;18.620;2022-07-23T00:45:30;19.90;99.90
36416;DHT22;22447;44.530;18.620;2022-07-23T00:47:56;19.80;99.90
36416;DHT22;22447;44.530;18.620;2022-07-23T00:50:22;19.80;99.90
36416;DHT22;22447;44.530;18.620;2022-07-23T00:52:49;19.80;99.90
36416;DHT22;22447;44.530;18.620;2022-07-23T00:55:15;19.80;99.90
36416;DHT22;22447;44.530;18.620;2022-07-23T00:57:42;19.70;99.90
36416;DHT22;22447;44.530;18.620;2022-07-23T01:00:11;19.60;99.90
36416;DHT22;22447;44.530;18.620;2022-07-23T01:02:38;19.70;99.90
36416;DHT22;22447;44.530;18.620;2022-07-23T01:05:05;19.60;99.90
36416;DHT22;22447;44.530;18.620;2022-07-23T01:07:31;19.60;99.90
36416;DHT22;22447;44.530;18.620;2022-07-23T01:09:59;19.70;99.90
36416;DHT22;22447;44.530;18.620;2022-07-23T01:12:25;19.60;99.90
36416;DHT22;22447;44.530;18.620;2022-07-23T01:14:58;19.60;99.90
36416;DHT22;22447;44.530;18.620;2022-07-23T01:17:26;19.50;99.90
36416;DHT22;22447;44.530;18.620;2022-07-23T01:19:52;19.50;99.90
36416;DHT22;22447;44.530;18.620;2022-07-23T01:22:19;19.50;99.90
36416;DHT22;22447;44.530;18.620;2022-07-23T01:24:46;19.50;99.90
36416;DHT22;22447;44.530;18.620;2022-07-23T01:27:12;19.60;99.90
36416;DHT22;22447;44.530;18.620;2022-07-23T01:29:39;19.50;99.90
36416;DHT22;22447;44.530;18.620;2022-07-23T01:32:16;19.50;99.90
36416;DHT22;22447;44.530;18.620;2022-07-23T01:34:42;19.50;99.90
36416;DHT22;22447;44.530;18.620;2022-07-23T01:37:08;19.50;99.90
36416;DHT22;22447;44.530;18.620;2022-07-23T01:39:34;19.50;99.90
36416;DHT22;22447;44.530;18.620;2022-07-23T01:42:00;19.50;99.90
36416;DHT22;22447;44.530;18.620;2022-07-23T01:44:27;19.40;99.90
36416;DHT22;22447;44.530;18.620;2022-07-23T01:46:53;19.40;99.90
36416;DHT22;22447;44.530;18.620;2022-07-23T01:49:20;19.40;99.90
36416;DHT22;22447;44.530;18.620;2022-07-23T01:52:05;19.40;99.90
36416;DHT22;22447;44.530;18.620;2022-07-23T01:54:48;19.30;99.90
36416;DHT22;22447;44.530;18.620;2022-07-23T01:57:14;19.30;99.90
36416;DHT22;22447;44.530;18.620;2022-07-23T01:59:40;19.30;99.90
36416;DHT22;22447;44.530;18.620;2022-07-23T02:02:07;19.30;99.90
36416;DHT22;22447;44.530;18.620;2022-07-23T02:04:33;19.30;99.90
36416;DHT22;22447;44.530;18.620;2022-07-23T02:07:03;19.20;99.90
36416;DHT22;22447;44.530;18.620;2022-07-23T02:09:29;19.30;99.90
36416;DHT22;22447;44.530;18.620;2022-07-23T02:11:55;19.30;99.90
36416;DHT22;22447;44.530;18.620;2022-07-23T02:14:21;19.30;99.90
36416;DHT22;22447;44.530;18.620;2022-07-23T02:16:47;19.20;99.90
36416;DHT22;22447;44.530;18.620;2022-07-23T02:19:14;19.20;99.90
36416;DHT22;22447;44.530;18.620;2022-07-23T02:21:40;19.20;99.90
36416;DHT22;22447;44.530;18.620;2022-07-23T02:24:06;19.10;99.90
36416;DHT22;22447;44.530;18.620;2022-07-23T02:26:32;19.00;99.90
36416;DHT22;22447;44.530;18.620;2022-07-23T02:29:03;19.00;99.90
36416;DHT22;22447;44.530;18.620;2022-07-23T02:31:30;19.00;99.90
36416;DHT22;22447;44.530;18.620;2022-07-23T02:33:56;18.90;99.90
36416;DHT22;22447;44.530;18.620;2022-07-23T02:36:23;18.80;99.90
36416;DHT22;22447;44.530;18.620;2022-07-23T02:38:50;18.80;99.90
36416;DHT22;22447;44.530;18.620;2022-07-23T02:41:16;18.80;99.90
36416;DHT22;22447;44.530;18.620;2022-07-23T02:43:42;18.80;99.90
36416;DHT22;22447;44.530;18.620;2022-07-23T02:46:08;18.70;99.90
36416;DHT22;22447;44.530;18.620;2022-07-23T02:48:35;18.70;99.90
36416;DHT22;22447;44.530;18.620;2022-07-23T02:51:01;18.70;99.90
36416;DHT22;22447;44.530;18.620;2022-07-23T02:53:36;18.70;99.90
36416;DHT22;22447;44.530;18.620;2022-07-23T02:56:02;18.70;99.90
36416;DHT22;22447;44.530;18.620;2022-07-23T02:58:28;18.70;99.90
36416;DHT22;22447;44.530;18.620;2022-07-23T03:00:54;18.70;99.90
36416;DHT22;22447;44.530;18.620;2022-07-23T03:03:20;18.70;99.90
36416;DHT22;22447;44.530;18.620;2022-07-23T03:05:46;18.60;99.90
36416;DHT22;22447;44.530;18.620;2022-07-23T03:08:12;18.60;99.90
36416;DHT22;22447;44.530;18.620;2022-07-23T03:10:41;18.60;99.90
36416;DHT22;22447;44.530;18.620;2022-07-23T03:13:07;18.60;99.90
36416;DHT22;22447;44.530;18.620;2022-07-23T03:15:33;18.50;99.90
36416;DHT22;22447;44.530;18.620;2022-07-23T03:17:59;18.40;99.90
36416;DHT22;22447;44.530;18.620;2022-07-23T03:20:25;18.30;99.90
36416;DHT22;22447;44.530;18.620;2022-07-23T03:22:52;18.30;99.90
36416;DHT22;22447;44.530;18.620;2022-07-23T03:25:18;18.30;99.90
36416;DHT22;22447;44.530;18.620;2022-07-23T03:27:44;18.30;99.90
36416;DHT22;22447;44.530;18.620;2022-07-23T03:30:11;18.30;99.90
36416;DHT22;22447;44.530;18.620;2022-07-23T03:32:37;18.30;99.90
36416;DHT22;22447;44.530;18.620;2022-07-23T03:35:04;18.20;99.90
36416;DHT22;22447;44.530;18.620;2022-07-23T03:37:31;18.30;99.90
36416;DHT22;22447;44.530;18.620;2022-07-23T03:39:58;18.20;99.90
36416;DHT22;22447;44.530;18.620;2022-07-23T03:42:24;18.20;99.90
36416;DHT22;22447;44.530;18.620;2022-07-23T03:44:50;18.10;99.90
36416;DHT22;22447;44.530;18.620;2022-07-23T03:47:16;18.20;99.90
36416;DHT22;22447;44.530;18.620;2022-07-23T03:49:43;18.20;99.90
36416;DHT22;22447;44.530;18.620;2022-07-23T03:52:09;18.20;99.90
36416;DHT22;22447;44.530;18.620;2022-07-23T03:54:35;18.20;99.90
36416;DHT22;22447;44.530;18.620;2022-07-23T03:57:01;18.20;99.90
36416;DHT22;22447;44.530;18.620;2022-07-23T03:59:28;18.20;99.90
36416;DHT22;22447;44.530;18.620;2022-07-23T04:01:53;18.20;99.90
36416;DHT22;22447;44.530;18.620;2022-07-23T04:04:19;18.20;99.90
36416;DHT22;22447;44.530;18.620;2022-07-23T04:06:45;18.20;99.90
36416;DHT22;22447;44.530;18.620;2022-07-23T04:09:11;18.20;99.90
36416;DHT22;22447;44.530;18.620;2022-07-23T04:11:38;18.30;99.90
36416;DHT22;22447;44.530;18.620;2022-07-23T04:14:03;18.30;99.90
36416;DHT22;22447;44.530;18.620;2022-07-23T04:16:30;18.40;99.90
36416;DHT22;22447;44.530;18.620;2022-07-23T04:18:57;18.40;99.90
36416;DHT22;22447;44.530;18.620;2022-07-23T04:21:24;18.50;99.90
36416;DHT22;22447;44.530;18.620;2022-07-23T04:23:50;18.50;99.90
36416;DHT22;22447;44.530;18.620;2022-07-23T04:26:16;18.60;99.90
36416;DHT22;22447;44.530;18.620;2022-07-23T04:28:42;18.60;99.90
36416;DHT22;22447;44.530;18.620;2022-07-23T04:31:09;18.70;99.90
36416;DHT22;22447;44.530;18.620;2022-07-23T04:33:37;18.80;99.90
36416;DHT22;22447;44.530;18.620;2022-07-23T04:36:06;18.90;99.90
36416;DHT22;22447;44.530;18.620;2022-07-23T04:38:32;19.00;99.90
36416;DHT22;22447;44.530;18.620;2022-07-23T04:41:01;19.10;99.90
36416;DHT22;22447;44.530;18.620;2022-07-23T04:43:27;19.20;99.90
36416;DHT22;22447;44.530;18.620;2022-07-23T04:45:54;19.30;99.90
36416;DHT22;22447;44.530;18.620;2022-07-23T04:48:19;19.40;99.90
36416;DHT22;22447;44.530;18.620;2022-07-23T04:50:48;19.70;99.90
36416;DHT22;22447;44.530;18.620;2022-07-23T04:53:17;19.70;99.90
36416;DHT22;22447;44.530;18.620;2022-07-23T04:55:44;19.80;99.90
36416;DHT22;22447;44.530;18.620;2022-07-23T04:58:10;19.90;99.90
36416;DHT22;22447;44.530;18.620;2022-07-23T05:00:36;20.00;99.90
36416;DHT22;22447;44.530;18.620;2022-07-23T05:03:02;20.10;99.90
36416;DHT22;22447;44.530;18.620;2022-07-23T05:05:29;20.10;99.90
36416;DHT22;22447;44.530;18.620;2022-07-23T05:08:00;20.10;99.90
36416;DHT22;22447;44.530;18.620;2022-07-23T05:10:27;20.30;99.90
36416;DHT22;22447;44.530;18.620;2022-07-23T05:12:53;20.40;99.90
36416;DHT22;22447;44.530;18.620;2022-07-23T05:15:19;20.50;99.90
36416;DHT22;22447;44.530;18.620;2022-07-23T05:17:45;20.70;99.90
36416;DHT22;22447;44.530;18.620;2022-07-23T05:20:15;20.80;99.40
36416;DHT22;22447;44.530;18.620;2022-07-23T05:22:41;21.00;99.30
36416;DHT22;22447;44.530;18.620;2022-07-23T05:25:07;21.10;99.30
36416;DHT22;22447;44.530;18.620;2022-07-23T05:27:33;21.20;99.30
36416;DHT22;22447;44.530;18.620;2022-07-23T05:29:59;21.30;97.50
36416;DHT22;22447;44.530;18.620;2022-07-23T05:32:25;21.40;94.70
36416;DHT22;22447;44.530;18.620;2022-07-23T05:35:03;21.40;93.60
36416;DHT22;22447;44.530;18.620;2022-07-23T05:37:30;21.60;93.40
36416;DHT22;22447;44.530;18.620;2022-07-23T05:39:55;21.70;91.70
36416;DHT22;22447;44.530;18.620;2022-07-23T05:42:25;21.70;91.50
36416;DHT22;22447;44.530;18.620;2022-07-23T05:44:51;21.90;91.30
36416;DHT22;22447;44.530;18.620;2022-07-23T05:47:17;22.10;91.10
36416;DHT22;22447;44.530;18.620;2022-07-23T05:49:43;22.20;90.70
36416;DHT22;22447;44.530;18.620;2022-07-23T05:52:35;22.30;90.80
36416;DHT22;22447;44.530;18.620;2022-07-23T05:55:20;22.60;90.10
36416;DHT22;22447;44.530;18.620;2022-07-23T05:57:46;22.70;84.80
36416;DHT22;22447;44.530;18.620;2022-07-23T06:00:12;22.90;84.20
36416;DHT22;22447;44.530;18.620;2022-07-23T06:02:42;23.00;83.60
36416;DHT22;22447;44.530;18.620;2022-07-23T06:05:10;23.10;81.60
36416;DHT22;22447;44.530;18.620;2022-07-23T06:07:38;23.30;80.10
36416;DHT22;22447;44.530;18.620;2022-07-23T06:10:04;23.40;77.80
36416;DHT22;22447;44.530;18.620;2022-07-23T06:12:31;23.50;76.80
36416;DHT22;22447;44.530;18.620;2022-07-23T06:14:56;23.70;76.80
36416;DHT22;22447;44.530;18.620;2022-07-23T06:17:22;23.90;76.60
36416;DHT22;22447;44.530;18.620;2022-07-23T06:19:48;24.00;76.40
36416;DHT22;22447;44.530;18.620;2022-07-23T06:22:15;24.10;74.60
36416;DHT22;22447;44.530;18.620;2022-07-23T06:24:41;24.30;73.90
36416;DHT22;22447;44.530;18.620;2022-07-23T06:27:07;24.50;73.90
36416;DHT22;22447;44.530;18.620;2022-07-23T06:29:34;24.50;72.20
36416;DHT22;22447;44.530;18.620;2022-07-23T06:32:01;24.70;70.40
36416;DHT22;22447;44.530;18.620;2022-07-23T06:34:27;24.90;68.70
36416;DHT22;22447;44.530;18.620;2022-07-23T06:36:55;25.00;68.70
36416;DHT22;22447;44.530;18.620;2022-07-23T06:39:21;25.30;67.30
36416;DHT22;22447;44.530;18.620;2022-07-23T06:41:48;25.40;66.20
36416;DHT22;22447;44.530;18.620;2022-07-23T06:44:16;25.60;66.20
36416;DHT22;22447;44.530;18.620;2022-07-23T06:46:42;25.80;65.30
36416;DHT22;22447;44.530;18.620;2022-07-23T06:49:09;26.00;65.20
36416;DHT22;22447;44.530;18.620;2022-07-23T06:51:35;26.20;64.20
36416;DHT22;22447;44.530;18.620;2022-07-23T06:54:02;26.40;62.00
36416;DHT22;22447;44.530;18.620;2022-07-23T06:56:28;26.60;60.90
36416;DHT22;22447;44.530;18.620;2022-07-23T06:58:54;26.90;60.20
36416;DHT22;22447;44.530;18.620;2022-07-23T07:01:20;27.10;60.10
36416;DHT22;22447;44.530;18.620;2022-07-23T07:03:47;27.40;58.40
36416;DHT22;22447;44.530;18.620;2022-07-23T07:06:13;27.60;58.40
36416;DHT22;22447;44.530;18.620;2022-07-23T07:08:39;27.90;58.20
36416;DHT22;22447;44.530;18.620;2022-07-23T07:11:05;28.20;58.00
36416;DHT22;22447;44.530;18.620;2022-07-23T07:13:31;28.50;57.00
36416;DHT22;22447;44.530;18.620;2022-07-23T07:15:57;28.80;56.10
36416;DHT22;22447;44.530;18.620;2022-07-23T07:18:23;29.10;54.60
36416;DHT22;22447;44.530;18.620;2022-07-23T07:20:49;29.50;54.20
36416;DHT22;22447;44.530;18.620;2022-07-23T07:23:15;29.70;53.40
36416;DHT22;22447;44.530;18.620;2022-07-23T07:25:41;30.10;52.60
36416;DHT22;22447;44.530;18.620;2022-07-23T07:28:06;30.40;52.30
36416;DHT22;22447;44.530;18.620;2022-07-23T07:30:32;30.70;50.90
36416;DHT22;22447;44.530;18.620;2022-07-23T07:32:58;31.00;49.90
36416;DHT22;22447;44.530;18.620;2022-07-23T07:35:25;31.30;49.00
36416;DHT22;22447;44.530;18.620;2022-07-23T07:37:50;31.50;47.40
36416;DHT22;22447;44.530;18.620;2022-07-23T07:40:16;31.80;47.10
36416;DHT22;22447;44.530;18.620;2022-07-23T07:42:50;32.00;46.40
36416;DHT22;22447;44.530;18.620;2022-07-23T07:45:17;32.20;44.80
36416;DHT22;22447;44.530;18.620;2022-07-23T07:47:43;32.50;45.70
36416;DHT22;22447;44.530;18.620;2022-07-23T07:50:09;32.90;44.70
36416;DHT22;22447;44.530;18.620;2022-07-23T07:52:35;33.00;43.20
36416;DHT22;22447;44.530;18.620;2022-07-23T07:55:06;33.40;41.40
36416;DHT22;22447;44.530;18.620;2022-07-23T07:57:33;33.80;42.10
36416;DHT22;22447;44.530;18.620;2022-07-23T07:59:59;34.10;42.00
36416;DHT22;22447;44.530;18.620;2022-07-23T08:02:25;34.30;39.40
36416;DHT22;22447;44.530;18.620;2022-07-23T08:04:51;34.50;38.00
36416;DHT22;22447;44.530;18.620;2022-07-23T08:07:17;34.60;38.80
36416;DHT22;22447;44.530;18.620;2022-07-23T08:09:43;34.70;38.00
36416;DHT22;22447;44.530;18.620;2022-07-23T08:12:09;34.40;36.80
36416;DHT22;22447;44.530;18.620;2022-07-23T08:14:35;34.50;38.40
36416;DHT22;22447;44.530;18.620;2022-07-23T08:17:01;34.90;38.80
36416;DHT22;22447;44.530;18.620;2022-07-23T08:19:26;35.30;38.90
36416;DHT22;22447;44.530;18.620;2022-07-23T08:21:52;34.80;39.00
36416;DHT22;22447;44.530;18.620;2022-07-23T08:24:18;35.20;38.40
36416;DHT22;22447;44.530;18.620;2022-07-23T08:26:44;35.40;39.00
36416;DHT22;22447;44.530;18.620;2022-07-23T08:29:10;35.90;37.80
36416;DHT22;22447;44.530;18.620;2022-07-23T08:31:36;36.10;37.20
36416;DHT22;22447;44.530;18.620;2022-07-23T08:34:02;36.10;37.60
36416;DHT22;22447;44.530;18.620;2022-07-23T08:36:28;36.40;36.60
36416;DHT22;22447;44.530;18.620;2022-07-23T08:38:58;36.70;35.40
36416;DHT22;22447;44.530;18.620;2022-07-23T08:41:25;36.60;35.50
36416;DHT22;22447;44.530;18.620;2022-07-23T08:43:51;36.90;34.60
36416;DHT22;22447;44.530;18.620;2022-07-23T08:46:19;36.90;34.50
36416;DHT22;22447;44.530;18.620;2022-07-23T08:48:48;37.10;34.20
36416;DHT22;22447;44.530;18.620;2022-07-23T08:51:14;37.30;33.10
36416;DHT22;22447;44.530;18.620;2022-07-23T08:53:40;37.50;33.10
36416;DHT22;22447;44.530;18.620;2022-07-23T08:56:08;37.40;32.30
36416;DHT22;22447;44.530;18.620;2022-07-23T08:58:34;37.80;32.10
36416;DHT22;22447;44.530;18.620;2022-07-23T09:01:01;37.90;32.10
36416;DHT22;22447;44.530;18.620;2022-07-23T09:03:30;37.60;31.70
36416;DHT22;22447;44.530;18.620;2022-07-23T09:05:58;37.80;30.50
36416;DHT22;22447;44.530;18.620;2022-07-23T09:08:27;37.70;31.00
36416;DHT22;22447;44.530;18.620;2022-07-23T09:11:01;38.00;29.40
36416;DHT22;22447;44.530;18.620;2022-07-23T09:13:30;37.70;30.10
36416;DHT22;22447;44.530;18.620;2022-07-23T09:15:59;38.00;30.00
36416;DHT22;22447;44.530;18.620;2022-07-23T09:18:30;38.20;29.70
36416;DHT22;22447;44.530;18.620;2022-07-23T09:23:45;39.20;28.20
36416;DHT22;22447;44.530;18.620;2022-07-23T09:26:31;39.40;28.90
36416;DHT22;22447;44.530;18.620;2022-07-23T09:31:24;39.40;27.50
36416;DHT22;22447;44.530;18.620;2022-07-23T09:33:51;39.80;27.90
36416;DHT22;22447;44.530;18.620;2022-07-23T09:36:28;40.10;27.60
36416;DHT22;22447;44.530;18.620;2022-07-23T09:38:54;40.60;26.80
36416;DHT22;22447;44.530;18.620;2022-07-23T09:41:20;40.90;26.20
36416;DHT22;22447;44.530;18.620;2022-07-23T09:43:46;40.80;26.10
36416;DHT22;22447;44.530;18.620;2022-07-23T09:46:18;41.40;25.90
36416;DHT22;22447;44.530;18.620;2022-07-23T09:48:46;41.70;25.20
36416;DHT22;22447;44.530;18.620;2022-07-23T09:51:12;41.30;25.70
36416;DHT22;22447;44.530;18.620;2022-07-23T09:53:40;41.60;25.30
36416;DHT22;22447;44.530;18.620;2022-07-23T09:56:07;41.20;24.50
36416;DHT22;22447;44.530;18.620;2022-07-23T09:58:35;40.40;24.10
36416;DHT22;22447;44.530;18.620;2022-07-23T10:01:09;41.00;25.20
36416;DHT22;22447;44.530;18.620;2022-07-23T10:03:36;41.10;22.70
36416;DHT22;22447;44.530;18.620;2022-07-23T10:06:31;41.40;25.20
36416;DHT22;22447;44.530;18.620;2022-07-23T10:09:16;41.70;23.50
36416;DHT22;22447;44.530;18.620;2022-07-23T10:12:04;41.00;23.50
36416;DHT22;22447;44.530;18.620;2022-07-23T10:14:53;40.70;23.30
36416;DHT22;22447;44.530;18.620;2022-07-23T10:17:19;40.20;24.50
36416;DHT22;22447;44.530;18.620;2022-07-23T10:19:45;41.20;24.40
36416;DHT22;22447;44.530;18.620;2022-07-23T10:22:33;41.00;22.90
36416;DHT22;22447;44.530;18.620;2022-07-23T10:25:20;41.20;22.00
36416;DHT22;22447;44.530;18.620;2022-07-23T10:39:08;41.70;23.60
36416;DHT22;22447;44.530;18.620;2022-07-23T10:41:39;42.30;22.10
36416;DHT22;22447;44.530;18.620;2022-07-23T10:44:16;42.40;22.30
36416;DHT22;22447;44.530;18.620;2022-07-23T10:47:04;41.90;21.90
36416;DHT22;22447;44.530;18.620;2022-07-23T10:49:49;42.20;22.30
36416;DHT22;22447;44.530;18.620;2022-07-23T10:52:22;41.80;22.20
36416;DHT22;22447;44.530;18.620;2022-07-23T10:54:56;41.90;21.90
36416;DHT22;22447;44.530;18.620;2022-07-23T10:57:49;42.30;21.90
36416;DHT22;22447;44.530;18.620;2022-07-23T11:00:20;43.20;23.50
36416;DHT22;22447;44.530;18.620;2022-07-23T11:02:48;43.80;21.60
36416;DHT22;22447;44.530;18.620;2022-07-23T11:05:20;43.80;21.30
36416;DHT22;22447;44.530;18.620;2022-07-23T11:13:31;43.90;22.40
36416;DHT22;22447;44.530;18.620;2022-07-23T11:32:00;42.00;20.60
36416;DHT22;22447;44.530;18.620;2022-07-23T11:34:42;40.60;22.70
36416;DHT22;22447;44.530;18.620;2022-07-23T11:37:12;41.70;21.70
36416;DHT22;22447;44.530;18.620;2022-07-23T11:39:38;42.20;21.80
36416;DHT22;22447;44.530;18.620;2022-07-23T11:42:06;42.90;21.20
36416;DHT22;22447;44.530;18.620;2022-07-23T11:44:36;43.10;20.70
36416;DHT22;22447;44.530;18.620;2022-07-23T11:47:05;43.40;21.30
36416;DHT22;22447;44.530;18.620;2022-07-23T11:49:32;43.60;21.40
36416;DHT22;22447;44.530;18.620;2022-07-23T11:52:12;44.00;19.40
36416;DHT22;22447;44.530;18.620;2022-07-23T11:54:53;43.60;19.10
36416;DHT22;22447;44.530;18.620;2022-07-23T11:57:21;43.20;20.50
36416;DHT22;22447;44.530;18.620;2022-07-23T11:59:53;43.80;19.70
36416;DHT22;22447;44.530;18.620;2022-07-23T12:02:21;43.00;19.90
36416;DHT22;22447;44.530;18.620;2022-07-23T12:04:49;43.60;20.40
36416;DHT22;22447;44.530;18.620;2022-07-23T12:07:42;43.30;21.10
36416;DHT22;22447;44.530;18.620;2022-07-23T12:12:58;42.50;20.10
36416;DHT22;22447;44.530;18.620;2022-07-23T12:15:36;42.90;20.60
36416;DHT22;22447;44.530;18.620;2022-07-23T12:18:06;43.40;20.10
36416;DHT22;22447;44.530;18.620;2022-07-23T12:20:39;43.90;17.30
36416;DHT22;22447;44.530;18.620;2022-07-23T12:23:07;43.50;18.40
36416;DHT22;22447;44.530;18.620;2022-07-23T12:25:35;43.70;18.50
36416;DHT22;22447;44.530;18.620;2022-07-23T12:28:04;43.40;17.90
36416;DHT22;22447;44.530;18.620;2022-07-23T12:30:45;43.80;17.30
36416;DHT22;22447;44.530;18.620;2022-07-23T12:33:21;44.20;17.80
36416;DHT22;22447;44.530;18.620;2022-07-23T12:35:48;44.40;18.30
36416;DHT22;22447;44.530;18.620;2022-07-23T12:38:19;43.40;17.50
36416;DHT22;22447;44.530;18.620;2022-07-23T12:40:50;42.50;17.90
36416;DHT22;22447;44.530;18.620;2022-07-23T12:43:31;43.50;18.90
36416;DHT22;22447;44.530;18.620;2022-07-23T12:48:37;42.30;18.80
36416;DHT22;22447;44.530;18.620;2022-07-23T12:51:08;42.80;19.50
36416;DHT22;22447;44.530;18.620;2022-07-23T12:53:46;43.50;18.70
36416;DHT22;22447;44.530;18.620;2022-07-23T12:56:18;43.80;18.70
36416;DHT22;22447;44.530;18.620;2022-07-23T12:58:57;43.90;19.20
36416;DHT22;22447;44.530;18.620;2022-07-23T13:01:24;44.00;18.60
36416;DHT22;22447;44.530;18.620;2022-07-23T13:04:00;43.50;18.90
36416;DHT22;22447;44.530;18.620;2022-07-23T13:06:31;43.80;19.80
36416;DHT22;22447;44.530;18.620;2022-07-23T13:08:57;43.70;18.50
36416;DHT22;22447;44.530;18.620;2022-07-23T13:11:23;42.20;19.40
36416;DHT22;22447;44.530;18.620;2022-07-23T13:13:50;43.10;19.50
36416;DHT22;22447;44.530;18.620;2022-07-23T13:16:16;43.60;19.80
36416;DHT22;22447;44.530;18.620;2022-07-23T13:18:42;43.70;19.70
36416;DHT22;22447;44.530;18.620;2022-07-23T13:21:08;43.40;19.30
36416;DHT22;22447;44.530;18.620;2022-07-23T13:23:34;43.00;19.50
36416;DHT22;22447;44.530;18.620;2022-07-23T13:26:00;43.10;19.80
36416;DHT22;22447;44.530;18.620;2022-07-23T13:28:26;43.30;19.20
36416;DHT22;22447;44.530;18.620;2022-07-23T13:30:52;43.10;19.20
36416;DHT22;22447;44.530;18.620;2022-07-23T13:33:21;43.20;19.80
36416;DHT22;22447;44.530;18.620;2022-07-23T13:35:47;43.30;19.60
36416;DHT22;22447;44.530;18.620;2022-07-23T13:38:13;42.40;19.70
36416;DHT22;22447;44.530;18.620;2022-07-23T13:40:42;41.70;21.30
36416;DHT22;22447;44.530;18.620;2022-07-23T13:43:14;41.40;20.90
36416;DHT22;22447;44.530;18.620;2022-07-23T13:45:41;42.00;20.70
36416;DHT22;22447;44.530;18.620;2022-07-23T13:48:08;42.10;20.60
36416;DHT22;22447;44.530;18.620;2022-07-23T13:50:35;42.20;20.30
36416;DHT22;22447;44.530;18.620;2022-07-23T13:53:06;42.20;20.30
36416;DHT22;22447;44.530;18.620;2022-07-23T13:55:33;42.00;19.90
36416;DHT22;22447;44.530;18.620;2022-07-23T13:57:59;41.70;21.00
36416;DHT22;22447;44.530;18.620;2022-07-23T14:00:27;41.90;20.50
36416;DHT22;22447;44.530;18.620;2022-07-23T14:02:53;41.80;20.50
36416;DHT22;22447;44.530;18.620;2022-07-23T14:05:20;41.90;21.30
36416;DHT22;22447;44.530;18.620;2022-07-23T14:07:46;41.70;20.60
36416;DHT22;22447;44.530;18.620;2022-07-23T14:10:16;41.20;20.30
36416;DHT22;22447;44.530;18.620;2022-07-23T14:12:43;40.80;20.70
36416;DHT22;22447;44.530;18.620;2022-07-23T14:15:09;40.90;21.50
36416;DHT22;22447;44.530;18.620;2022-07-23T14:17:37;41.10;21.10
36416;DHT22;22447;44.530;18.620;2022-07-23T14:20:04;41.20;21.90
36416;DHT22;22447;44.530;18.620;2022-07-23T14:22:30;40.80;20.70
36416;DHT22;22447;44.530;18.620;2022-07-23T14:24:57;40.90;20.80
36416;DHT22;22447;44.530;18.620;2022-07-23T14:27:25;40.60;21.40
36416;DHT22;22447;44.530;18.620;2022-07-23T14:29:53;40.80;21.70
36416;DHT22;22447;44.530;18.620;2022-07-23T14:32:19;40.80;22.00
36416;DHT22;22447;44.530;18.620;2022-07-23T14:34:45;40.50;22.60
36416;DHT22;22447;44.530;18.620;2022-07-23T14:37:11;40.50;22.50
36416;DHT22;22447;44.530;18.620;2022-07-23T14:39:38;40.50;22.30
36416;DHT22;22447;44.530;18.620;2022-07-23T14:42:05;40.10;21.90
36416;DHT22;22447;44.530;18.620;2022-07-23T14:44:31;40.40;21.90
36416;DHT22;22447;44.530;18.620;2022-07-23T14:46:57;40.40;22.10
36416;DHT22;22447;44.530;18.620;2022-07-23T14:49:23;40.20;22.50
36416;DHT22;22447;44.530;18.620;2022-07-23T14:51:49;39.90;22.50
36416;DHT22;22447;44.530;18.620;2022-07-23T14:54:15;40.10;23.30
36416;DHT22;22447;44.530;18.620;2022-07-23T14:56:41;40.10;21.70
36416;DHT22;22447;44.530;18.620;2022-07-23T14:59:08;39.80;22.50
36416;DHT22;22447;44.530;18.620;2022-07-23T15:01:34;39.90;22.00
36416;DHT22;22447;44.530;18.620;2022-07-23T15:04:00;40.00;22.40
36416;DHT22;22447;44.530;18.620;2022-07-23T15:06:26;39.90;22.70
36416;DHT22;22447;44.530;18.620;2022-07-23T15:08:52;39.30;21.20
36416;DHT22;22447;44.530;18.620;2022-07-23T15:11:18;39.40;22.40
36416;DHT22;22447;44.530;18.620;2022-07-23T15:13:44;39.40;23.40
36416;DHT22;22447;44.530;18.620;2022-07-23T15:16:10;39.40;23.70
36416;DHT22;22447;44.530;18.620;2022-07-23T15:18:36;39.30;23.60
36416;DHT22;22447;44.530;18.620;2022-07-23T15:21:02;39.40;24.20
36416;DHT22;22447;44.530;18.620;2022-07-23T15:23:28;39.20;26.20
36416;DHT22;22447;44.530;18.620;2022-07-23T15:25:55;39.20;25.10
36416;DHT22;22447;44.530;18.620;2022-07-23T15:28:21;39.00;26.50
36416;DHT22;22447;44.530;18.620;2022-07-23T15:30:51;38.90;26.80
36416;DHT22;22447;44.530;18.620;2022-07-23T15:33:18;38.70;25.60
36416;DHT22;22447;44.530;18.620;2022-07-23T15:35:45;38.50;27.30
36416;DHT22;22447;44.530;18.620;2022-07-23T15:38:11;38.50;26.90
36416;DHT22;22447;44.530;18.620;2022-07-23T15:40:37;38.40;28.30
36416;DHT22;22447;44.530;18.620;2022-07-23T15:43:03;38.30;26.30
36416;DHT22;22447;44.530;18.620;2022-07-23T15:45:30;38.20;26.70
36416;DHT22;22447;44.530;18.620;2022-07-23T15:47:56;38.20;26.70
36416;DHT22;22447;44.530;18.620;2022-07-23T15:50:22;38.00;26.50
36416;DHT22;22447;44.530;18.620;2022-07-23T15:52:48;37.90;27.90
36416;DHT22;22447;44.530;18.620;2022-07-23T15:55:14;37.90;27.20
36416;DHT22;22447;44.530;18.620;2022-07-23T15:57:40;37.90;28.50
36416;DHT22;22447;44.530;18.620;2022-07-23T16:00:11;37.80;28.40
36416;DHT22;22447;44.530;18.620;2022-07-23T16:02:43;37.70;28.20
36416;DHT22;22447;44.530;18.620;2022-07-23T16:05:09;37.50;29.50